createdAt,value
2023-04-23T08:20:31.693Z,30.79
2023-04-23T08:25:35.884Z,28.81
2023-04-23T08:30:40.122Z,27.23
2023-04-23T08:35:46.122Z,26.17
2023-04-23T08:40:50.477Z,25.22
2023-04-23T08:45:54.535Z,25.09
2023-04-23T08:51:00.431Z,26.51
2023-04-23T08:56:05.673Z,29.46
2023-04-23T09:01:09.754Z,30.01
2023-04-23T09:06:15.807Z,30.72
2023-04-23T09:11:19.992Z,30.45
2023-04-23T09:16:24.075Z,32.24
2023-04-23T09:21:30.934Z,35.20
2023-04-23T09:26:35.523Z,34.13
2023-04-23T09:31:39.578Z,32.79
2023-04-23T09:36:45.602Z,31.69
2023-04-23T09:41:49.716Z,30.86
2023-04-23T09:46:53.734Z,30.06
2023-04-23T09:51:59.796Z,29.48
2023-04-23T09:57:05.430Z,29.25
2023-04-23T10:02:10.227Z,29.06
2023-04-23T10:07:20.243Z,28.35
2023-04-23T10:17:31.888Z,27.54
2023-04-23T10:27:58.870Z,26.72
2023-04-23T10:33:03.055Z,26.42
2023-04-23T10:38:07.209Z,25.88
2023-04-23T10:43:13.178Z,25.65
2023-04-23T10:48:17.380Z,25.68
2023-04-23T10:53:21.903Z,25.91
2023-04-23T10:58:28.997Z,25.99
2023-04-23T11:03:34.436Z,25.70
2023-04-23T11:08:39.385Z,25.59
2023-04-23T11:13:46.922Z,25.77
2023-04-23T11:19:11.899Z,25.84
2023-04-23T11:24:16.519Z,25.66
2023-04-23T11:29:21.718Z,25.58
2023-04-23T11:34:27.779Z,25.38
2023-04-23T11:39:32.022Z,25.17
2023-04-23T11:44:36.556Z,25.06
2023-04-23T11:49:45.064Z,25.04
2023-04-23T11:54:49.692Z,24.92
2023-04-23T11:59:56.226Z,24.83
2023-04-23T12:05:09.721Z,24.83
2023-04-23T12:10:19.648Z,24.82
2023-04-23T12:15:23.994Z,24.66
2023-04-23T12:20:30.068Z,24.42
2023-04-23T12:25:34.871Z,24.08
2023-04-23T12:30:46.214Z,23.75
2023-04-23T12:35:54.335Z,23.58
2023-04-23T12:41:01.319Z,23.42
2023-04-23T12:46:05.646Z,23.42
2023-04-23T12:51:11.946Z,23.49
2023-04-23T12:56:16.329Z,23.49
2023-04-23T13:01:20.451Z,23.85
2023-04-23T13:06:28.731Z,24.07
2023-04-23T13:11:32.927Z,24.22
2023-04-23T13:16:37.117Z,24.37
2023-04-23T13:21:43.151Z,24.53
2023-04-23T13:26:47.546Z,24.70
2023-04-23T13:31:51.890Z,24.86
2023-04-23T13:36:57.946Z,25.05
2023-04-23T13:42:09.513Z,24.97
2023-04-23T13:47:14.289Z,24.71
2023-04-23T13:52:20.638Z,24.50
2023-04-23T13:57:25.955Z,24.06
2023-04-23T14:02:30.848Z,23.70
2023-04-23T14:07:37.408Z,23.48
2023-04-23T14:12:41.667Z,23.44
2023-04-23T14:17:47.014Z,23.54
2023-04-23T14:22:58.337Z,23.45
2023-04-23T14:28:05.187Z,23.16
2023-04-23T14:33:09.317Z,22.85
2023-04-23T14:38:15.713Z,22.44
2023-04-23T14:43:19.947Z,22.09
2023-04-23T14:48:24.010Z,21.90
2023-04-23T14:53:30.187Z,21.80
2023-04-23T14:58:34.196Z,21.77
2023-04-23T15:03:38.420Z,21.58
2023-04-23T15:08:44.882Z,21.50
2023-04-23T15:13:54.506Z,21.40
2023-04-23T15:18:58.911Z,21.26
2023-04-23T15:24:05.506Z,21.12
2023-04-23T15:29:09.617Z,21.12
2023-04-23T15:34:13.661Z,21.03
2023-04-23T15:39:19.690Z,20.93
2023-04-23T15:44:24.692Z,20.76
2023-04-23T15:49:28.766Z,20.64
2023-04-23T15:54:34.813Z,20.60
2023-04-23T15:59:39.204Z,20.54
2023-04-23T16:04:43.922Z,20.42
2023-04-23T16:09:50.816Z,20.27
2023-04-23T16:14:54.974Z,20.02
2023-04-23T16:19:59.044Z,19.56
2023-04-23T16:25:05.793Z,18.98
2023-04-23T16:30:11.910Z,18.46
2023-04-23T16:35:16.089Z,18.06
2023-04-23T16:40:22.355Z,17.83
2023-04-23T16:45:26.764Z,17.53
2023-04-23T16:50:30.888Z,17.28
2023-04-23T16:55:37.669Z,17.02
2023-04-23T17:00:41.684Z,16.88
2023-04-23T17:05:45.806Z,16.90
2023-04-23T17:10:51.950Z,16.97
2023-04-23T17:15:56.047Z,16.99
2023-04-23T17:21:00.206Z,16.95
2023-04-23T17:26:06.250Z,16.89
2023-04-23T17:31:10.773Z,16.85
2023-04-23T17:36:15.315Z,-133.81
2023-04-23T17:41:22.306Z,-133.81
2023-04-23T17:46:26.488Z,-133.81
2023-04-23T17:51:30.944Z,-133.81
2023-04-23T17:56:37.187Z,-133.81
2023-04-23T18:01:41.239Z,-133.81
2023-04-23T18:06:45.526Z,-133.81
2023-04-23T18:11:51.805Z,-133.81
2023-04-23T18:16:55.987Z,-133.81
2023-04-23T18:22:01.724Z,-133.81
2023-04-23T18:27:07.768Z,-133.81
2023-04-23T18:32:15.861Z,-133.81
2023-04-23T18:37:40.268Z,-133.81
2023-04-23T18:42:46.296Z,-133.81
2023-04-23T18:47:53.010Z,-133.81
2023-04-23T18:52:57.162Z,-133.81
2023-04-23T18:58:03.688Z,-133.81
2023-04-23T19:03:23.462Z,-133.81
2023-04-23T19:08:31.013Z,-133.81
2023-04-23T19:13:36.974Z,-133.81
2023-04-23T19:18:40.962Z,-133.81
2023-04-23T19:23:45.081Z,-133.81
2023-04-23T19:28:51.029Z,-133.81
2023-04-23T19:33:55.049Z,-133.81
2023-04-23T19:38:59.285Z,-133.81
2023-04-23T19:44:05.358Z,-133.81
2023-04-23T19:49:09.483Z,-133.81
2023-04-23T19:54:13.481Z,-133.81
2023-04-23T19:59:20.436Z,-133.81
2023-04-23T20:04:24.591Z,-133.81
2023-04-23T20:09:29.041Z,-133.81
2023-04-23T20:14:35.297Z,-133.81
2023-04-23T20:19:39.293Z,-133.81
2023-04-23T20:24:45.879Z,-133.81
2023-04-23T20:29:52.075Z,-133.81
2023-04-23T20:34:57.451Z,-133.81
2023-04-23T20:40:01.716Z,-133.81
2023-04-23T20:45:12.618Z,-133.81
2023-04-23T20:50:16.953Z,-133.81
2023-04-23T20:55:21.520Z,-133.81
2023-04-23T21:00:28.847Z,-133.81
